sensor_id;sensor_type;location;lat;lon;timestamp;P1;durP1;ratioP1;P2;durP2;ratioP2
57299;SDS011;43148;50.966;18.198;2023-06-24T00:00:56;4.60;;;4.40;;
57299;SDS011;43148;50.966;18.198;2023-06-24T00:10:43;8.80;;;8.30;;
57299;SDS011;43148;50.966;18.198;2023-06-24T00:20:31;9.20;;;8.60;;
57299;SDS011;43148;50.966;18.198;2023-06-24T00:30:12;9.50;;;8.60;;
57299;SDS011;43148;50.966;18.198;2023-06-24T00:47:13;4.30;;;4.10;;
57299;SDS011;43148;50.966;18.198;2023-06-24T00:56:57;5.80;;;5.50;;
57299;SDS011;43148;50.966;18.198;2023-06-24T01:06:45;7.80;;;6.80;;
57299;SDS011;43148;50.966;18.198;2023-06-24T01:47:15;6.30;;;5.90;;
57299;SDS011;43148;50.966;18.198;2023-06-24T01:57:01;6.40;;;3.50;;
57299;SDS011;43148;50.966;18.198;2023-06-24T02:06:44;6.10;;;5.70;;
57299;SDS011;43148;50.966;18.198;2023-06-24T02:16:28;14.60;;;6.20;;
57299;SDS011;43148;50.966;18.198;2023-06-24T02:26:11;6.90;;;6.30;;
57299;SDS011;43148;50.966;18.198;2023-06-24T02:43:11;6.70;;;6.10;;
57299;SDS011;43148;50.966;18.198;2023-06-24T02:52:54;3.30;;;3.10;;
57299;SDS011;43148;50.966;18.198;2023-06-24T03:02:38;4.50;;;4.30;;
57299;SDS011;43148;50.966;18.198;2023-06-24T03:19:47;10.90;;;5.20;;
57299;SDS011;43148;50.966;18.198;2023-06-24T03:29:29;4.60;;;4.30;;
57299;SDS011;43148;50.966;18.198;2023-06-24T03:39:11;4.60;;;4.40;;
57299;SDS011;43148;50.966;18.198;2023-06-24T03:48:58;6.70;;;5.80;;
57299;SDS011;43148;50.966;18.198;2023-06-24T03:58:42;4.50;;;4.10;;
57299;SDS011;43148;50.966;18.198;2023-06-24T04:08:27;6.40;;;6.00;;
57299;SDS011;43148;50.966;18.198;2023-06-24T04:18:13;5.60;;;5.20;;
57299;SDS011;43148;50.966;18.198;2023-06-24T04:27:56;10.00;;;2.80;;
57299;SDS011;43148;50.966;18.198;2023-06-24T04:37:38;5.60;;;5.30;;
57299;SDS011;43148;50.966;18.198;2023-06-24T04:47:22;5.30;;;4.90;;
57299;SDS011;43148;50.966;18.198;2023-06-24T04:57:05;5.10;;;4.80;;
57299;SDS011;43148;50.966;18.198;2023-06-24T05:06:49;3.60;;;3.30;;
57299;SDS011;43148;50.966;18.198;2023-06-24T05:16:31;4.50;;;4.20;;
57299;SDS011;43148;50.966;18.198;2023-06-24T05:26:13;3.10;;;3.00;;
57299;SDS011;43148;50.966;18.198;2023-06-24T05:35:56;2.90;;;2.80;;
57299;SDS011;43148;50.966;18.198;2023-06-24T05:45:38;3.50;;;3.30;;
57299;SDS011;43148;50.966;18.198;2023-06-24T05:55:20;3.70;;;3.50;;
57299;SDS011;43148;50.966;18.198;2023-06-24T06:05:03;4.10;;;3.80;;
57299;SDS011;43148;50.966;18.198;2023-06-24T06:14:45;2.00;;;1.90;;
57299;SDS011;43148;50.966;18.198;2023-06-24T06:31:48;8.80;;;4.00;;
57299;SDS011;43148;50.966;18.198;2023-06-24T06:41:30;3.00;;;2.90;;
57299;SDS011;43148;50.966;18.198;2023-06-24T06:51:14;3.60;;;3.40;;
57299;SDS011;43148;50.966;18.198;2023-06-24T07:00:56;3.70;;;3.50;;
57299;SDS011;43148;50.966;18.198;2023-06-24T07:10:44;3.50;;;3.30;;
57299;SDS011;43148;50.966;18.198;2023-06-24T07:20:26;11.30;;;4.10;;
57299;SDS011;43148;50.966;18.198;2023-06-24T07:30:08;3.30;;;3.10;;
57299;SDS011;43148;50.966;18.198;2023-06-24T07:47:10;2.90;;;2.70;;
57299;SDS011;43148;50.966;18.198;2023-06-24T07:56:53;1.40;;;1.40;;
57299;SDS011;43148;50.966;18.198;2023-06-24T08:06:35;1.80;;;1.70;;
57299;SDS011;43148;50.966;18.198;2023-06-24T08:16:19;2.00;;;1.90;;
57299;SDS011;43148;50.966;18.198;2023-06-24T08:26:02;2.20;;;2.10;;
57299;SDS011;43148;50.966;18.198;2023-06-24T08:50:18;2.20;;;2.00;;
57299;SDS011;43148;50.966;18.198;2023-06-24T09:00:05;1.90;;;1.80;;
57299;SDS011;43148;50.966;18.198;2023-06-24T09:09:57;2.70;;;2.50;;
57299;SDS011;43148;50.966;18.198;2023-06-24T09:19:42;1.40;;;1.40;;
57299;SDS011;43148;50.966;18.198;2023-06-24T09:29:28;2.40;;;2.30;;
57299;SDS011;43148;50.966;18.198;2023-06-24T09:39:20;1.00;;;1.00;;
57299;SDS011;43148;50.966;18.198;2023-06-24T09:49:13;12.10;;;2.40;;
57299;SDS011;43148;50.966;18.198;2023-06-24T09:58:56;1.90;;;1.80;;
57299;SDS011;43148;50.966;18.198;2023-06-24T10:08:39;2.50;;;2.40;;
57299;SDS011;43148;50.966;18.198;2023-06-24T10:28:12;1.20;;;1.20;;
57299;SDS011;43148;50.966;18.198;2023-06-24T10:37:58;2.20;;;2.10;;
57299;SDS011;43148;50.966;18.198;2023-06-24T10:48:17;2.40;;;2.20;;
57299;SDS011;43148;50.966;18.198;2023-06-24T10:58:12;3.40;;;3.20;;
57299;SDS011;43148;50.966;18.198;2023-06-24T11:08:02;2.40;;;2.30;;
57299;SDS011;43148;50.966;18.198;2023-06-24T11:17:44;3.40;;;3.30;;
57299;SDS011;43148;50.966;18.198;2023-06-24T11:27:27;5.10;;;4.80;;
57299;SDS011;43148;50.966;18.198;2023-06-24T11:37:12;3.60;;;3.30;;
57299;SDS011;43148;50.966;18.198;2023-06-24T11:47:06;2.80;;;2.70;;
57299;SDS011;43148;50.966;18.198;2023-06-24T11:49:52;4.20;;;3.90;;
57299;SDS011;43148;50.966;18.198;2023-06-24T11:59:43;3.00;;;2.80;;
57299;SDS011;43148;50.966;18.198;2023-06-24T12:09:31;2.10;;;2.00;;
57299;SDS011;43148;50.966;18.198;2023-06-24T12:19:13;5.70;;;3.10;;
57299;SDS011;43148;50.966;18.198;2023-06-24T12:28:58;2.60;;;2.40;;
57299;SDS011;43148;50.966;18.198;2023-06-24T12:38:41;3.80;;;3.60;;
57299;SDS011;43148;50.966;18.198;2023-06-24T12:48:23;4.30;;;4.10;;
57299;SDS011;43148;50.966;18.198;2023-06-24T12:58:10;3.80;;;3.40;;
57299;SDS011;43148;50.966;18.198;2023-06-24T13:07:52;4.40;;;4.10;;
57299;SDS011;43148;50.966;18.198;2023-06-24T13:17:35;3.40;;;3.20;;
57299;SDS011;43148;50.966;18.198;2023-06-24T13:27:21;3.30;;;3.10;;
57299;SDS011;43148;50.966;18.198;2023-06-24T13:37:04;11.20;;;4.10;;
57299;SDS011;43148;50.966;18.198;2023-06-24T13:46:46;1.50;;;1.30;;
57299;SDS011;43148;50.966;18.198;2023-06-24T13:56:29;4.50;;;4.30;;
57299;SDS011;43148;50.966;18.198;2023-06-24T14:06:16;4.10;;;3.90;;
57299;SDS011;43148;50.966;18.198;2023-06-24T14:16:02;2.60;;;2.50;;
57299;SDS011;43148;50.966;18.198;2023-06-24T14:33:04;4.80;;;4.50;;
57299;SDS011;43148;50.966;18.198;2023-06-24T14:42:46;4.50;;;4.20;;
57299;SDS011;43148;50.966;18.198;2023-06-24T14:52:30;11.90;;;5.70;;
57299;SDS011;43148;50.966;18.198;2023-06-24T15:02:14;4.20;;;4.00;;
57299;SDS011;43148;50.966;18.198;2023-06-24T15:11:57;5.60;;;5.20;;
57299;SDS011;43148;50.966;18.198;2023-06-24T15:21:41;5.10;;;4.80;;
57299;SDS011;43148;50.966;18.198;2023-06-24T15:31:23;5.90;;;5.10;;
57299;SDS011;43148;50.966;18.198;2023-06-24T15:41:05;4.90;;;4.70;;
57299;SDS011;43148;50.966;18.198;2023-06-24T15:50:47;4.00;;;3.80;;
57299;SDS011;43148;50.966;18.198;2023-06-24T16:00:31;5.50;;;5.10;;
57299;SDS011;43148;50.966;18.198;2023-06-24T16:10:13;4.10;;;3.80;;
57299;SDS011;43148;50.966;18.198;2023-06-24T16:19:55;4.00;;;3.80;;
57299;SDS011;43148;50.966;18.198;2023-06-24T16:29:37;4.70;;;4.40;;
57299;SDS011;43148;50.966;18.198;2023-06-24T16:39:26;5.40;;;5.00;;
57299;SDS011;43148;50.966;18.198;2023-06-24T16:49:13;4.90;;;4.60;;
57299;SDS011;43148;50.966;18.198;2023-06-24T16:58:57;6.00;;;5.10;;
57299;SDS011;43148;50.966;18.198;2023-06-24T17:08:39;2.80;;;1.70;;
57299;SDS011;43148;50.966;18.198;2023-06-24T17:18:21;3.80;;;3.60;;
57299;SDS011;43148;50.966;18.198;2023-06-24T17:28:03;5.30;;;5.00;;
57299;SDS011;43148;50.966;18.198;2023-06-24T17:37:47;4.10;;;3.80;;
57299;SDS011;43148;50.966;18.198;2023-06-24T17:47:51;6.10;;;5.70;;
57299;SDS011;43148;50.966;18.198;2023-06-24T17:57:33;6.20;;;5.60;;
57299;SDS011;43148;50.966;18.198;2023-06-24T18:07:19;5.10;;;4.70;;
57299;SDS011;43148;50.966;18.198;2023-06-24T18:17:02;5.50;;;5.20;;
57299;SDS011;43148;50.966;18.198;2023-06-24T18:26:52;3.20;;;3.10;;
57299;SDS011;43148;50.966;18.198;2023-06-24T18:36:35;5.70;;;5.40;;
57299;SDS011;43148;50.966;18.198;2023-06-24T18:46:18;5.10;;;4.90;;
57299;SDS011;43148;50.966;18.198;2023-06-24T18:56:03;5.60;;;5.30;;
57299;SDS011;43148;50.966;18.198;2023-06-24T19:05:46;6.70;;;6.10;;
57299;SDS011;43148;50.966;18.198;2023-06-24T19:15:28;7.90;;;7.30;;
57299;SDS011;43148;50.966;18.198;2023-06-24T19:25:11;6.10;;;5.70;;
57299;SDS011;43148;50.966;18.198;2023-06-24T19:34:53;7.00;;;6.60;;
57299;SDS011;43148;50.966;18.198;2023-06-24T19:51:53;7.10;;;6.60;;
57299;SDS011;43148;50.966;18.198;2023-06-24T20:01:35;5.30;;;5.00;;
57299;SDS011;43148;50.966;18.198;2023-06-24T20:18:35;8.60;;;8.10;;
57299;SDS011;43148;50.966;18.198;2023-06-24T20:28:17;9.10;;;8.40;;
57299;SDS011;43148;50.966;18.198;2023-06-24T20:38:00;6.00;;;5.50;;
57299;SDS011;43148;50.966;18.198;2023-06-24T20:47:43;8.10;;;7.60;;
57299;SDS011;43148;50.966;18.198;2023-06-24T20:57:28;7.60;;;7.10;;
57299;SDS011;43148;50.966;18.198;2023-06-24T21:07:10;7.20;;;6.70;;
57299;SDS011;43148;50.966;18.198;2023-06-24T21:16:53;7.00;;;6.60;;
57299;SDS011;43148;50.966;18.198;2023-06-24T21:26:35;8.30;;;7.80;;
57299;SDS011;43148;50.966;18.198;2023-06-24T21:36:17;8.80;;;8.30;;
57299;SDS011;43148;50.966;18.198;2023-06-24T21:46:02;8.80;;;8.30;;
57299;SDS011;43148;50.966;18.198;2023-06-24T21:55:45;7.70;;;7.40;;
57299;SDS011;43148;50.966;18.198;2023-06-24T22:05:27;4.70;;;4.30;;
57299;SDS011;43148;50.966;18.198;2023-06-24T22:15:09;13.10;;;8.70;;
57299;SDS011;43148;50.966;18.198;2023-06-24T22:24:51;5.70;;;5.40;;
57299;SDS011;43148;50.966;18.198;2023-06-24T22:34:33;9.30;;;8.80;;
57299;SDS011;43148;50.966;18.198;2023-06-24T22:44:15;9.10;;;8.70;;
57299;SDS011;43148;50.966;18.198;2023-06-24T22:53:56;9.30;;;8.60;;
57299;SDS011;43148;50.966;18.198;2023-06-24T23:03:38;8.50;;;8.00;;
57299;SDS011;43148;50.966;18.198;2023-06-24T23:13:21;9.00;;;8.40;;
57299;SDS011;43148;50.966;18.198;2023-06-24T23:23:07;9.10;;;8.50;;
57299;SDS011;43148;50.966;18.198;2023-06-24T23:33:01;8.70;;;8.20;;
57299;SDS011;43148;50.966;18.198;2023-06-24T23:42:44;10.30;;;9.60;;
57299;SDS011;43148;50.966;18.198;2023-06-24T23:52:27;4.90;;;4.60;;
